sensor_id;sensor_type;location;lat;lon;timestamp;temperature;humidity
18868;DHT22;9563;49.240;9.088;2023-12-04T05:00:40;-1.30;99.90
18868;DHT22;9563;49.240;9.088;2023-12-04T05:03:07;-1.20;99.90
18868;DHT22;9563;49.240;9.088;2023-12-04T05:05:34;-1.20;99.90
18868;DHT22;9563;49.240;9.088;2023-12-04T05:08:01;-1.10;99.90
18868;DHT22;9563;49.240;9.088;2023-12-04T05:10:28;-1.20;99.90
18868;DHT22;9563;49.240;9.088;2023-12-04T05:12:54;-1.10;99.90
18868;DHT22;9563;49.240;9.088;2023-12-04T05:15:21;-1.10;99.90
18868;DHT22;9563;49.240;9.088;2023-12-04T05:17:50;-1.00;99.90
18868;DHT22;9563;49.240;9.088;2023-12-04T05:20:16;-1.00;99.90
18868;DHT22;9563;49.240;9.088;2023-12-04T05:22:43;-1.00;99.90
18868;DHT22;9563;49.240;9.088;2023-12-04T05:25:10;-1.00;99.90
18868;DHT22;9563;49.240;9.088;2023-12-04T05:27:37;-1.00;99.90
18868;DHT22;9563;49.240;9.088;2023-12-04T05:30:05;-1.00;99.90
18868;DHT22;9563;49.240;9.088;2023-12-04T05:32:32;-1.00;99.90
18868;DHT22;9563;49.240;9.088;2023-12-04T05:35:00;-1.00;99.90
18868;DHT22;9563;49.240;9.088;2023-12-04T05:37:27;-1.00;99.90
18868;DHT22;9563;49.240;9.088;2023-12-04T05:39:55;-1.00;99.90
18868;DHT22;9563;49.240;9.088;2023-12-04T05:42:22;-1.00;99.90
18868;DHT22;9563;49.240;9.088;2023-12-04T05:44:49;-1.00;99.90
18868;DHT22;9563;49.240;9.088;2023-12-04T05:47:16;-1.10;99.90
18868;DHT22;9563;49.240;9.088;2023-12-04T05:49:42;-1.20;99.90
18868;DHT22;9563;49.240;9.088;2023-12-04T05:52:10;-1.10;99.90
18868;DHT22;9563;49.240;9.088;2023-12-04T05:54:37;-1.10;99.90
18868;DHT22;9563;49.240;9.088;2023-12-04T05:57:04;-1.10;99.90
18868;DHT22;9563;49.240;9.088;2023-12-04T05:59:31;-1.10;99.90
18868;DHT22;9563;49.240;9.088;2023-12-04T06:01:58;-1.10;99.90
18868;DHT22;9563;49.240;9.088;2023-12-04T06:04:25;-1.10;99.90
18868;DHT22;9563;49.240;9.088;2023-12-04T06:06:52;-1.20;99.90
18868;DHT22;9563;49.240;9.088;2023-12-04T06:09:19;-1.10;99.90
18868;DHT22;9563;49.240;9.088;2023-12-04T06:11:46;-1.20;99.90
18868;DHT22;9563;49.240;9.088;2023-12-04T06:14:12;-1.20;99.90
18868;DHT22;9563;49.240;9.088;2023-12-04T06:16:39;-1.20;99.90
18868;DHT22;9563;49.240;9.088;2023-12-04T06:19:06;-1.20;99.90
18868;DHT22;9563;49.240;9.088;2023-12-04T06:21:33;-1.20;99.90
18868;DHT22;9563;49.240;9.088;2023-12-04T06:24:00;-1.20;99.90
18868;DHT22;9563;49.240;9.088;2023-12-04T06:26:30;-1.20;99.90
18868;DHT22;9563;49.240;9.088;2023-12-04T06:28:58;-1.20;99.90
18868;DHT22;9563;49.240;9.088;2023-12-04T06:31:26;-1.20;99.90
18868;DHT22;9563;49.240;9.088;2023-12-04T06:33:53;-1.40;99.90
18868;DHT22;9563;49.240;9.088;2023-12-04T06:36:21;-1.50;99.90
18868;DHT22;9563;49.240;9.088;2023-12-04T06:38:50;-1.50;99.90
18868;DHT22;9563;49.240;9.088;2023-12-04T06:41:18;-1.60;99.90
18868;DHT22;9563;49.240;9.088;2023-12-04T06:43:48;-1.70;99.90
18868;DHT22;9563;49.240;9.088;2023-12-04T06:46:16;-1.60;99.90
18868;DHT22;9563;49.240;9.088;2023-12-04T06:48:44;-1.60;99.90
18868;DHT22;9563;49.240;9.088;2023-12-04T06:51:10;-1.60;99.90
18868;DHT22;9563;49.240;9.088;2023-12-04T06:53:37;-1.40;99.90
18868;DHT22;9563;49.240;9.088;2023-12-04T06:56:05;-1.20;99.90
18868;DHT22;9563;49.240;9.088;2023-12-04T06:58:32;-1.00;99.90
18868;DHT22;9563;49.240;9.088;2023-12-04T07:01:00;-0.90;99.90
18868;DHT22;9563;49.240;9.088;2023-12-04T07:03:27;-0.90;99.90
18868;DHT22;9563;49.240;9.088;2023-12-04T07:05:54;-0.90;99.90
18868;DHT22;9563;49.240;9.088;2023-12-04T07:08:21;-0.90;99.90
18868;DHT22;9563;49.240;9.088;2023-12-04T07:10:48;-0.80;99.90
18868;DHT22;9563;49.240;9.088;2023-12-04T07:13:15;-0.80;99.90
18868;DHT22;9563;49.240;9.088;2023-12-04T07:15:42;-0.80;99.90
18868;DHT22;9563;49.240;9.088;2023-12-04T07:18:10;-0.80;99.90
18868;DHT22;9563;49.240;9.088;2023-12-04T07:20:37;-0.70;99.90
18868;DHT22;9563;49.240;9.088;2023-12-04T07:23:04;-0.70;99.90
18868;DHT22;9563;49.240;9.088;2023-12-04T07:25:31;-0.70;99.90
18868;DHT22;9563;49.240;9.088;2023-12-04T07:27:58;-0.60;99.90
18868;DHT22;9563;49.240;9.088;2023-12-04T07:30:25;-0.60;99.90
18868;DHT22;9563;49.240;9.088;2023-12-04T07:32:52;-0.60;99.90
18868;DHT22;9563;49.240;9.088;2023-12-04T07:35:21;-0.40;99.90
18868;DHT22;9563;49.240;9.088;2023-12-04T07:37:48;-0.50;99.90
18868;DHT22;9563;49.240;9.088;2023-12-04T07:40:15;-0.50;99.90
18868;DHT22;9563;49.240;9.088;2023-12-04T07:42:42;-0.60;99.90
18868;DHT22;9563;49.240;9.088;2023-12-04T07:45:10;-0.50;99.90
18868;DHT22;9563;49.240;9.088;2023-12-04T07:47:37;-0.40;99.90
18868;DHT22;9563;49.240;9.088;2023-12-04T07:50:08;-0.40;99.90
18868;DHT22;9563;49.240;9.088;2023-12-04T07:52:36;-0.40;99.90
18868;DHT22;9563;49.240;9.088;2023-12-04T07:55:06;-0.40;99.90
18868;DHT22;9563;49.240;9.088;2023-12-04T07:57:33;-0.40;99.90
18868;DHT22;9563;49.240;9.088;2023-12-04T08:00:00;-0.40;99.90
18868;DHT22;9563;49.240;9.088;2023-12-04T08:02:27;-0.40;99.90
18868;DHT22;9563;49.240;9.088;2023-12-04T08:04:54;-0.40;99.90
18868;DHT22;9563;49.240;9.088;2023-12-04T08:07:21;-0.30;99.90
18868;DHT22;9563;49.240;9.088;2023-12-04T08:09:50;-0.30;99.90
18868;DHT22;9563;49.240;9.088;2023-12-04T08:12:17;-0.30;99.90
18868;DHT22;9563;49.240;9.088;2023-12-04T08:14:43;-0.20;99.90
18868;DHT22;9563;49.240;9.088;2023-12-04T08:17:12;-0.20;99.90
18868;DHT22;9563;49.240;9.088;2023-12-04T08:19:39;-0.10;99.90
18868;DHT22;9563;49.240;9.088;2023-12-04T08:22:07;-0.20;99.90
18868;DHT22;9563;49.240;9.088;2023-12-04T08:24:34;-0.20;99.90
18868;DHT22;9563;49.240;9.088;2023-12-04T08:27:02;-0.10;99.90
18868;DHT22;9563;49.240;9.088;2023-12-04T08:29:29;-0.10;99.90
18868;DHT22;9563;49.240;9.088;2023-12-04T08:31:56;-0.10;99.90
18868;DHT22;9563;49.240;9.088;2023-12-04T08:34:23;-0.10;99.90
18868;DHT22;9563;49.240;9.088;2023-12-04T08:36:50;-0.20;99.90
18868;DHT22;9563;49.240;9.088;2023-12-04T08:39:17;-0.30;99.90
18868;DHT22;9563;49.240;9.088;2023-12-04T08:41:45;-0.20;99.90
18868;DHT22;9563;49.240;9.088;2023-12-04T08:44:14;-0.20;99.90
18868;DHT22;9563;49.240;9.088;2023-12-04T08:46:42;0.00;99.90
18868;DHT22;9563;49.240;9.088;2023-12-04T08:49:09;0.10;99.90
18868;DHT22;9563;49.240;9.088;2023-12-04T08:51:35;0.00;99.90
18868;DHT22;9563;49.240;9.088;2023-12-04T08:54:02;0.10;99.90
18868;DHT22;9563;49.240;9.088;2023-12-04T08:56:29;0.20;99.90
18868;DHT22;9563;49.240;9.088;2023-12-04T08:58:56;0.20;99.90
18868;DHT22;9563;49.240;9.088;2023-12-04T09:01:25;0.30;99.90
18868;DHT22;9563;49.240;9.088;2023-12-04T09:03:52;0.20;99.90
18868;DHT22;9563;49.240;9.088;2023-12-04T09:06:18;0.30;99.90
18868;DHT22;9563;49.240;9.088;2023-12-04T09:08:45;0.30;99.90
18868;DHT22;9563;49.240;9.088;2023-12-04T09:11:12;0.30;99.90
18868;DHT22;9563;49.240;9.088;2023-12-04T09:13:39;0.30;99.90
18868;DHT22;9563;49.240;9.088;2023-12-04T09:16:07;0.40;99.90
18868;DHT22;9563;49.240;9.088;2023-12-04T09:18:36;0.40;99.90
18868;DHT22;9563;49.240;9.088;2023-12-04T09:21:03;0.40;99.90
18868;DHT22;9563;49.240;9.088;2023-12-04T09:23:30;0.40;99.90
18868;DHT22;9563;49.240;9.088;2023-12-04T09:25:57;0.40;99.90
18868;DHT22;9563;49.240;9.088;2023-12-04T09:28:24;0.40;99.90
18868;DHT22;9563;49.240;9.088;2023-12-04T09:30:51;0.40;99.90
18868;DHT22;9563;49.240;9.088;2023-12-04T09:33:18;0.50;99.90
18868;DHT22;9563;49.240;9.088;2023-12-04T09:35:47;0.50;99.90
18868;DHT22;9563;49.240;9.088;2023-12-04T09:38:14;0.60;99.90
18868;DHT22;9563;49.240;9.088;2023-12-04T09:40:42;0.60;99.90
18868;DHT22;9563;49.240;9.088;2023-12-04T09:43:09;0.60;99.90
18868;DHT22;9563;49.240;9.088;2023-12-04T09:45:36;0.60;99.90
18868;DHT22;9563;49.240;9.088;2023-12-04T09:48:05;0.60;99.90
18868;DHT22;9563;49.240;9.088;2023-12-04T09:50:35;0.60;99.90
18868;DHT22;9563;49.240;9.088;2023-12-04T09:53:03;0.60;99.90
18868;DHT22;9563;49.240;9.088;2023-12-04T09:55:30;0.60;99.90
18868;DHT22;9563;49.240;9.088;2023-12-04T09:57:57;0.70;99.90
18868;DHT22;9563;49.240;9.088;2023-12-04T10:00:24;0.60;99.90
18868;DHT22;9563;49.240;9.088;2023-12-04T10:02:51;0.70;99.90
18868;DHT22;9563;49.240;9.088;2023-12-04T10:05:18;0.60;99.90
18868;DHT22;9563;49.240;9.088;2023-12-04T10:07:49;0.50;99.90
18868;DHT22;9563;49.240;9.088;2023-12-04T10:10:17;0.60;99.90
18868;DHT22;9563;49.240;9.088;2023-12-04T10:12:44;0.60;99.90
18868;DHT22;9563;49.240;9.088;2023-12-04T10:15:12;0.60;99.90
18868;DHT22;9563;49.240;9.088;2023-12-04T10:17:41;0.70;99.90
18868;DHT22;9563;49.240;9.088;2023-12-04T10:20:10;0.60;99.90
18868;DHT22;9563;49.240;9.088;2023-12-04T10:22:39;0.70;99.90
18868;DHT22;9563;49.240;9.088;2023-12-04T10:25:17;0.70;99.90
18868;DHT22;9563;49.240;9.088;2023-12-04T10:27:44;0.80;99.90
18868;DHT22;9563;49.240;9.088;2023-12-04T10:30:22;0.80;99.90
18868;DHT22;9563;49.240;9.088;2023-12-04T10:32:53;0.80;99.90
18868;DHT22;9563;49.240;9.088;2023-12-04T10:35:20;0.90;99.90
18868;DHT22;9563;49.240;9.088;2023-12-04T10:37:48;1.00;99.90
18868;DHT22;9563;49.240;9.088;2023-12-04T10:40:24;1.00;99.90
18868;DHT22;9563;49.240;9.088;2023-12-04T10:42:51;1.00;99.90
18868;DHT22;9563;49.240;9.088;2023-12-04T10:45:18;1.00;99.90
18868;DHT22;9563;49.240;9.088;2023-12-04T10:47:49;1.00;99.90
18868;DHT22;9563;49.240;9.088;2023-12-04T10:50:17;1.00;99.90
18868;DHT22;9563;49.240;9.088;2023-12-04T10:52:44;0.90;99.90
18868;DHT22;9563;49.240;9.088;2023-12-04T10:55:12;0.90;99.90
18868;DHT22;9563;49.240;9.088;2023-12-04T10:57:42;0.90;99.90
18868;DHT22;9563;49.240;9.088;2023-12-04T11:00:11;1.00;99.90
18868;DHT22;9563;49.240;9.088;2023-12-04T11:02:43;1.00;99.90
18868;DHT22;9563;49.240;9.088;2023-12-04T11:05:14;1.10;99.90
18868;DHT22;9563;49.240;9.088;2023-12-04T11:07:47;1.20;99.90
18868;DHT22;9563;49.240;9.088;2023-12-04T11:10:17;1.20;99.90
18868;DHT22;9563;49.240;9.088;2023-12-04T11:12:53;1.30;99.90
18868;DHT22;9563;49.240;9.088;2023-12-04T11:15:22;1.20;99.90
18868;DHT22;9563;49.240;9.088;2023-12-04T11:17:53;1.20;99.90
18868;DHT22;9563;49.240;9.088;2023-12-04T11:20:21;1.20;99.90
18868;DHT22;9563;49.240;9.088;2023-12-04T11:22:51;1.20;99.90
18868;DHT22;9563;49.240;9.088;2023-12-04T11:25:20;1.20;99.90
18868;DHT22;9563;49.240;9.088;2023-12-04T11:27:50;1.10;99.90
18868;DHT22;9563;49.240;9.088;2023-12-04T11:30:18;1.10;99.90
18868;DHT22;9563;49.240;9.088;2023-12-04T11:32:46;1.10;99.90
18868;DHT22;9563;49.240;9.088;2023-12-04T11:35:14;1.10;99.90
18868;DHT22;9563;49.240;9.088;2023-12-04T11:37:43;1.10;99.90
18868;DHT22;9563;49.240;9.088;2023-12-04T11:40:12;1.10;99.90
18868;DHT22;9563;49.240;9.088;2023-12-04T11:42:40;1.10;99.90
18868;DHT22;9563;49.240;9.088;2023-12-04T11:45:09;1.00;99.90
18868;DHT22;9563;49.240;9.088;2023-12-04T11:47:49;0.90;99.90
18868;DHT22;9563;49.240;9.088;2023-12-04T11:50:16;0.80;99.90
18868;DHT22;9563;49.240;9.088;2023-12-04T11:52:44;0.90;99.90
18868;DHT22;9563;49.240;9.088;2023-12-04T11:55:12;0.90;99.90
18868;DHT22;9563;49.240;9.088;2023-12-04T11:57:42;1.00;99.90
18868;DHT22;9563;49.240;9.088;2023-12-04T12:00:12;1.00;99.90
18868;DHT22;9563;49.240;9.088;2023-12-04T12:02:47;1.10;99.90
18868;DHT22;9563;49.240;9.088;2023-12-04T12:05:15;1.10;99.90
18868;DHT22;9563;49.240;9.088;2023-12-04T12:07:42;1.20;99.90
18868;DHT22;9563;49.240;9.088;2023-12-04T12:10:10;1.30;99.90
18868;DHT22;9563;49.240;9.088;2023-12-04T12:12:39;1.30;99.90
18868;DHT22;9563;49.240;9.088;2023-12-04T12:15:08;1.30;99.90
18868;DHT22;9563;49.240;9.088;2023-12-04T12:17:40;1.30;99.90
18868;DHT22;9563;49.240;9.088;2023-12-04T12:20:09;1.20;99.90
18868;DHT22;9563;49.240;9.088;2023-12-04T12:22:37;1.20;99.90
18868;DHT22;9563;49.240;9.088;2023-12-04T12:25:08;1.20;99.90
18868;DHT22;9563;49.240;9.088;2023-12-04T12:27:35;1.30;99.90
18868;DHT22;9563;49.240;9.088;2023-12-04T12:30:02;1.20;99.90
18868;DHT22;9563;49.240;9.088;2023-12-04T12:32:31;1.10;99.90
18868;DHT22;9563;49.240;9.088;2023-12-04T12:34:59;1.10;99.90
18868;DHT22;9563;49.240;9.088;2023-12-04T12:37:26;1.10;99.90
18868;DHT22;9563;49.240;9.088;2023-12-04T12:39:53;0.90;99.90
18868;DHT22;9563;49.240;9.088;2023-12-04T12:42:24;1.00;99.90
18868;DHT22;9563;49.240;9.088;2023-12-04T12:44:51;1.00;99.90
18868;DHT22;9563;49.240;9.088;2023-12-04T12:47:19;1.00;99.90
18868;DHT22;9563;49.240;9.088;2023-12-04T12:49:46;1.00;99.90
18868;DHT22;9563;49.240;9.088;2023-12-04T12:52:15;1.00;99.90
18868;DHT22;9563;49.240;9.088;2023-12-04T12:54:43;1.10;99.90
18868;DHT22;9563;49.240;9.088;2023-12-04T12:57:11;1.10;99.90
18868;DHT22;9563;49.240;9.088;2023-12-04T12:59:38;1.10;99.90
18868;DHT22;9563;49.240;9.088;2023-12-04T13:02:06;1.10;99.90
18868;DHT22;9563;49.240;9.088;2023-12-04T13:04:36;1.00;99.90
18868;DHT22;9563;49.240;9.088;2023-12-04T13:07:04;1.00;99.90
18868;DHT22;9563;49.240;9.088;2023-12-04T13:09:33;1.00;99.90
18868;DHT22;9563;49.240;9.088;2023-12-04T13:12:01;1.00;99.90
18868;DHT22;9563;49.240;9.088;2023-12-04T13:14:28;0.90;99.90
18868;DHT22;9563;49.240;9.088;2023-12-04T13:16:55;0.90;99.90
18868;DHT22;9563;49.240;9.088;2023-12-04T13:19:23;0.90;99.90
18868;DHT22;9563;49.240;9.088;2023-12-04T13:21:50;0.90;99.90
18868;DHT22;9563;49.240;9.088;2023-12-04T13:24:17;1.00;99.90
18868;DHT22;9563;49.240;9.088;2023-12-04T13:26:45;0.90;99.90
18868;DHT22;9563;49.240;9.088;2023-12-04T13:29:12;0.90;99.90
18868;DHT22;9563;49.240;9.088;2023-12-04T13:31:41;1.00;99.90
18868;DHT22;9563;49.240;9.088;2023-12-04T13:34:08;1.00;99.90
18868;DHT22;9563;49.240;9.088;2023-12-04T13:36:37;1.00;99.90
18868;DHT22;9563;49.240;9.088;2023-12-04T13:39:04;1.10;99.90
18868;DHT22;9563;49.240;9.088;2023-12-04T13:41:31;1.10;99.90
18868;DHT22;9563;49.240;9.088;2023-12-04T13:44:17;1.10;99.90
18868;DHT22;9563;49.240;9.088;2023-12-04T13:46:44;1.20;99.90
18868;DHT22;9563;49.240;9.088;2023-12-04T13:49:12;1.20;99.90
18868;DHT22;9563;49.240;9.088;2023-12-04T13:51:39;1.20;99.90
18868;DHT22;9563;49.240;9.088;2023-12-04T13:54:06;1.20;99.90
18868;DHT22;9563;49.240;9.088;2023-12-04T13:56:46;1.30;99.90
18868;DHT22;9563;49.240;9.088;2023-12-04T13:59:20;1.30;99.90
18868;DHT22;9563;49.240;9.088;2023-12-04T14:01:48;1.30;99.90
18868;DHT22;9563;49.240;9.088;2023-12-04T14:04:17;1.30;99.90
18868;DHT22;9563;49.240;9.088;2023-12-04T14:06:44;1.30;99.90
18868;DHT22;9563;49.240;9.088;2023-12-04T14:09:11;1.40;99.90
18868;DHT22;9563;49.240;9.088;2023-12-04T14:11:44;1.40;99.90
18868;DHT22;9563;49.240;9.088;2023-12-04T14:14:11;1.50;99.90
18868;DHT22;9563;49.240;9.088;2023-12-04T14:16:40;1.40;99.90
18868;DHT22;9563;49.240;9.088;2023-12-04T14:19:07;1.40;99.90
18868;DHT22;9563;49.240;9.088;2023-12-04T14:21:35;1.50;99.90
18868;DHT22;9563;49.240;9.088;2023-12-04T14:24:02;1.50;99.90
18868;DHT22;9563;49.240;9.088;2023-12-04T14:26:29;1.60;99.90
18868;DHT22;9563;49.240;9.088;2023-12-04T14:28:56;1.50;99.90
18868;DHT22;9563;49.240;9.088;2023-12-04T14:31:26;1.50;99.90
18868;DHT22;9563;49.240;9.088;2023-12-04T14:33:54;1.50;99.90
18868;DHT22;9563;49.240;9.088;2023-12-04T14:36:21;1.50;99.90
18868;DHT22;9563;49.240;9.088;2023-12-04T14:38:48;1.50;99.90
18868;DHT22;9563;49.240;9.088;2023-12-04T14:41:15;1.50;99.90
18868;DHT22;9563;49.240;9.088;2023-12-04T14:43:42;1.60;99.90
18868;DHT22;9563;49.240;9.088;2023-12-04T14:46:09;1.50;99.90
18868;DHT22;9563;49.240;9.088;2023-12-04T14:48:38;1.50;99.90
18868;DHT22;9563;49.240;9.088;2023-12-04T14:51:09;1.50;99.90
18868;DHT22;9563;49.240;9.088;2023-12-04T14:53:37;1.60;99.90
18868;DHT22;9563;49.240;9.088;2023-12-04T14:56:16;1.50;99.90
18868;DHT22;9563;49.240;9.088;2023-12-04T14:58:51;1.50;99.90
18868;DHT22;9563;49.240;9.088;2023-12-04T15:01:41;1.50;99.90
18868;DHT22;9563;49.240;9.088;2023-12-04T15:04:25;1.50;99.90
18868;DHT22;9563;49.240;9.088;2023-12-04T15:07:10;1.50;99.90
18868;DHT22;9563;49.240;9.088;2023-12-04T15:10:12;1.60;99.90
18868;DHT22;9563;49.240;9.088;2023-12-04T15:13:04;1.70;99.90
18868;DHT22;9563;49.240;9.088;2023-12-04T15:16:01;1.60;99.90
18868;DHT22;9563;49.240;9.088;2023-12-04T15:18:52;1.60;99.90
18868;DHT22;9563;49.240;9.088;2023-12-04T15:21:36;1.50;99.90
18868;DHT22;9563;49.240;9.088;2023-12-04T15:24:07;1.50;99.90
18868;DHT22;9563;49.240;9.088;2023-12-04T15:26:33;1.50;99.90
18868;DHT22;9563;49.240;9.088;2023-12-04T15:29:00;1.50;99.90
18868;DHT22;9563;49.240;9.088;2023-12-04T15:31:26;1.50;99.90
18868;DHT22;9563;49.240;9.088;2023-12-04T15:33:53;1.50;99.90
18868;DHT22;9563;49.240;9.088;2023-12-04T15:36:19;1.60;99.90
18868;DHT22;9563;49.240;9.088;2023-12-04T15:38:47;1.60;99.90
18868;DHT22;9563;49.240;9.088;2023-12-04T15:41:15;1.70;99.90
18868;DHT22;9563;49.240;9.088;2023-12-04T15:43:42;1.60;99.90
18868;DHT22;9563;49.240;9.088;2023-12-04T15:46:10;1.80;99.90
18868;DHT22;9563;49.240;9.088;2023-12-04T15:48:37;1.90;99.90
18868;DHT22;9563;49.240;9.088;2023-12-04T15:51:04;2.00;99.90
18868;DHT22;9563;49.240;9.088;2023-12-04T15:53:31;2.00;99.90
18868;DHT22;9563;49.240;9.088;2023-12-04T15:55:57;1.90;99.90
18868;DHT22;9563;49.240;9.088;2023-12-04T15:58:26;1.80;99.90
18868;DHT22;9563;49.240;9.088;2023-12-04T16:00:51;1.70;99.90
18868;DHT22;9563;49.240;9.088;2023-12-04T16:03:18;1.60;99.90
18868;DHT22;9563;49.240;9.088;2023-12-04T16:05:45;1.60;99.90
18868;DHT22;9563;49.240;9.088;2023-12-04T16:08:13;1.50;99.90
18868;DHT22;9563;49.240;9.088;2023-12-04T16:10:40;1.50;99.90
18868;DHT22;9563;49.240;9.088;2023-12-04T16:13:07;1.50;99.90
18868;DHT22;9563;49.240;9.088;2023-12-04T16:15:36;1.50;99.90
18868;DHT22;9563;49.240;9.088;2023-12-04T16:18:04;1.50;99.90
18868;DHT22;9563;49.240;9.088;2023-12-04T16:20:31;1.50;99.90
18868;DHT22;9563;49.240;9.088;2023-12-04T16:22:58;1.50;99.90
18868;DHT22;9563;49.240;9.088;2023-12-04T16:25:25;1.40;99.90
18868;DHT22;9563;49.240;9.088;2023-12-04T16:27:53;1.40;99.90
18868;DHT22;9563;49.240;9.088;2023-12-04T16:30:23;1.50;99.90
18868;DHT22;9563;49.240;9.088;2023-12-04T16:32:51;1.40;99.90
18868;DHT22;9563;49.240;9.088;2023-12-04T16:35:18;1.50;99.90
18868;DHT22;9563;49.240;9.088;2023-12-04T16:37:45;1.50;99.90
18868;DHT22;9563;49.240;9.088;2023-12-04T16:40:12;1.50;99.90
18868;DHT22;9563;49.240;9.088;2023-12-04T16:42:40;1.50;99.90
18868;DHT22;9563;49.240;9.088;2023-12-04T16:45:08;1.60;99.90
18868;DHT22;9563;49.240;9.088;2023-12-04T16:47:35;1.60;99.90
18868;DHT22;9563;49.240;9.088;2023-12-04T16:50:04;1.50;99.90
18868;DHT22;9563;49.240;9.088;2023-12-04T16:52:31;1.60;99.90
18868;DHT22;9563;49.240;9.088;2023-12-04T16:54:58;1.60;99.90
18868;DHT22;9563;49.240;9.088;2023-12-04T16:57:25;1.50;99.90
18868;DHT22;9563;49.240;9.088;2023-12-04T16:59:52;1.60;99.90
18868;DHT22;9563;49.240;9.088;2023-12-04T17:02:19;1.60;99.90
18868;DHT22;9563;49.240;9.088;2023-12-04T17:04:45;1.60;99.90
18868;DHT22;9563;49.240;9.088;2023-12-04T17:07:14;1.60;99.90
18868;DHT22;9563;49.240;9.088;2023-12-04T17:09:41;1.60;99.90
18868;DHT22;9563;49.240;9.088;2023-12-04T17:12:08;1.60;99.90
18868;DHT22;9563;49.240;9.088;2023-12-04T17:14:37;1.50;99.90
18868;DHT22;9563;49.240;9.088;2023-12-04T17:17:04;1.50;99.90
18868;DHT22;9563;49.240;9.088;2023-12-04T17:19:31;1.50;99.90
18868;DHT22;9563;49.240;9.088;2023-12-04T17:21:58;1.40;99.90
18868;DHT22;9563;49.240;9.088;2023-12-04T17:24:29;1.50;99.90
18868;DHT22;9563;49.240;9.088;2023-12-04T17:26:56;1.50;99.90
18868;DHT22;9563;49.240;9.088;2023-12-04T17:29:24;1.50;99.90
18868;DHT22;9563;49.240;9.088;2023-12-04T17:31:53;1.60;99.90
18868;DHT22;9563;49.240;9.088;2023-12-04T17:34:21;1.60;99.90
18868;DHT22;9563;49.240;9.088;2023-12-04T17:36:48;1.60;99.90
18868;DHT22;9563;49.240;9.088;2023-12-04T17:39:15;1.50;99.90
18868;DHT22;9563;49.240;9.088;2023-12-04T17:41:44;1.50;99.90
18868;DHT22;9563;49.240;9.088;2023-12-04T17:44:11;1.50;99.90
18868;DHT22;9563;49.240;9.088;2023-12-04T17:46:38;1.60;99.90
18868;DHT22;9563;49.240;9.088;2023-12-04T17:49:05;1.50;99.90
18868;DHT22;9563;49.240;9.088;2023-12-04T17:51:33;1.60;99.90
18868;DHT22;9563;49.240;9.088;2023-12-04T17:54:00;1.60;99.90
18868;DHT22;9563;49.240;9.088;2023-12-04T17:56:27;1.60;99.90
18868;DHT22;9563;49.240;9.088;2023-12-04T17:58:55;1.60;99.90
18868;DHT22;9563;49.240;9.088;2023-12-04T18:01:23;1.60;99.90
18868;DHT22;9563;49.240;9.088;2023-12-04T18:03:50;1.60;99.90
18868;DHT22;9563;49.240;9.088;2023-12-04T18:06:25;1.60;99.90
18868;DHT22;9563;49.240;9.088;2023-12-04T18:08:52;1.60;99.90
18868;DHT22;9563;49.240;9.088;2023-12-04T18:11:19;1.60;99.90
18868;DHT22;9563;49.240;9.088;2023-12-04T18:13:46;1.60;99.90
18868;DHT22;9563;49.240;9.088;2023-12-04T18:16:14;1.60;99.90
18868;DHT22;9563;49.240;9.088;2023-12-04T18:18:41;1.60;99.90
18868;DHT22;9563;49.240;9.088;2023-12-04T18:21:08;1.70;99.90
18868;DHT22;9563;49.240;9.088;2023-12-04T18:23:35;1.60;99.90
18868;DHT22;9563;49.240;9.088;2023-12-04T18:26:04;1.70;99.90
18868;DHT22;9563;49.240;9.088;2023-12-04T18:28:34;1.70;99.90
18868;DHT22;9563;49.240;9.088;2023-12-04T18:31:02;1.70;99.90
18868;DHT22;9563;49.240;9.088;2023-12-04T18:33:31;1.70;99.90
18868;DHT22;9563;49.240;9.088;2023-12-04T18:36:01;1.70;99.90
18868;DHT22;9563;49.240;9.088;2023-12-04T18:38:36;1.80;99.90
18868;DHT22;9563;49.240;9.088;2023-12-04T18:41:08;1.70;99.90
18868;DHT22;9563;49.240;9.088;2023-12-04T18:43:36;1.80;99.90
18868;DHT22;9563;49.240;9.088;2023-12-04T18:46:04;1.80;99.90
18868;DHT22;9563;49.240;9.088;2023-12-04T18:48:34;1.80;99.90
18868;DHT22;9563;49.240;9.088;2023-12-04T18:51:03;1.90;99.90
18868;DHT22;9563;49.240;9.088;2023-12-04T18:53:30;1.90;99.90
18868;DHT22;9563;49.240;9.088;2023-12-04T18:55:57;1.80;99.90
18868;DHT22;9563;49.240;9.088;2023-12-04T18:58:24;1.80;99.90
18868;DHT22;9563;49.240;9.088;2023-12-04T19:00:52;1.80;99.90
18868;DHT22;9563;49.240;9.088;2023-12-04T19:03:19;1.80;99.90
18868;DHT22;9563;49.240;9.088;2023-12-04T19:05:48;1.90;99.90
18868;DHT22;9563;49.240;9.088;2023-12-04T19:08:15;1.90;99.90
18868;DHT22;9563;49.240;9.088;2023-12-04T19:10:42;1.90;99.90
18868;DHT22;9563;49.240;9.088;2023-12-04T19:13:09;2.00;99.90
18868;DHT22;9563;49.240;9.088;2023-12-04T19:15:36;1.90;99.90
18868;DHT22;9563;49.240;9.088;2023-12-04T19:18:03;1.90;99.90
18868;DHT22;9563;49.240;9.088;2023-12-04T19:20:30;1.90;99.90
18868;DHT22;9563;49.240;9.088;2023-12-04T19:22:59;1.90;99.90
18868;DHT22;9563;49.240;9.088;2023-12-04T19:25:27;2.00;99.90
18868;DHT22;9563;49.240;9.088;2023-12-04T19:27:54;2.00;99.90
18868;DHT22;9563;49.240;9.088;2023-12-04T19:30:21;1.90;99.90
18868;DHT22;9563;49.240;9.088;2023-12-04T19:32:47;1.80;99.90
18868;DHT22;9563;49.240;9.088;2023-12-04T19:35:14;1.90;99.90
18868;DHT22;9563;49.240;9.088;2023-12-04T19:37:42;1.80;99.90
18868;DHT22;9563;49.240;9.088;2023-12-04T19:40:14;1.90;99.90
18868;DHT22;9563;49.240;9.088;2023-12-04T19:42:41;1.90;99.90
18868;DHT22;9563;49.240;9.088;2023-12-04T19:45:10;1.90;99.90
18868;DHT22;9563;49.240;9.088;2023-12-04T19:47:37;1.80;99.90
18868;DHT22;9563;49.240;9.088;2023-12-04T19:50:05;1.90;99.90
18868;DHT22;9563;49.240;9.088;2023-12-04T19:52:35;1.90;99.90
18868;DHT22;9563;49.240;9.088;2023-12-04T19:55:02;1.90;99.90
18868;DHT22;9563;49.240;9.088;2023-12-04T19:57:31;1.90;99.90
18868;DHT22;9563;49.240;9.088;2023-12-04T19:59:58;2.00;99.90
18868;DHT22;9563;49.240;9.088;2023-12-04T20:02:26;1.90;99.90
18868;DHT22;9563;49.240;9.088;2023-12-04T20:04:53;1.90;99.90
18868;DHT22;9563;49.240;9.088;2023-12-04T20:07:20;1.90;99.90
18868;DHT22;9563;49.240;9.088;2023-12-04T20:09:47;1.90;99.90
18868;DHT22;9563;49.240;9.088;2023-12-04T20:12:14;1.90;99.90
18868;DHT22;9563;49.240;9.088;2023-12-04T20:14:46;1.90;99.90
18868;DHT22;9563;49.240;9.088;2023-12-04T20:17:13;1.90;99.90
18868;DHT22;9563;49.240;9.088;2023-12-04T20:19:42;1.90;99.90
18868;DHT22;9563;49.240;9.088;2023-12-04T20:22:09;1.90;99.90
18868;DHT22;9563;49.240;9.088;2023-12-04T20:24:37;1.90;99.90
18868;DHT22;9563;49.240;9.088;2023-12-04T20:27:04;1.90;99.90
18868;DHT22;9563;49.240;9.088;2023-12-04T20:29:31;2.00;99.90
18868;DHT22;9563;49.240;9.088;2023-12-04T20:32:00;2.00;99.90
18868;DHT22;9563;49.240;9.088;2023-12-04T20:34:27;2.10;99.90
18868;DHT22;9563;49.240;9.088;2023-12-04T20:36:55;2.00;99.90
18868;DHT22;9563;49.240;9.088;2023-12-04T20:39:22;2.10;99.90
18868;DHT22;9563;49.240;9.088;2023-12-04T20:41:49;2.20;99.90
18868;DHT22;9563;49.240;9.088;2023-12-04T20:44:16;2.10;99.90
18868;DHT22;9563;49.240;9.088;2023-12-04T20:46:43;2.10;99.90
18868;DHT22;9563;49.240;9.088;2023-12-04T20:49:11;2.10;99.90
18868;DHT22;9563;49.240;9.088;2023-12-04T20:51:38;2.10;99.90
18868;DHT22;9563;49.240;9.088;2023-12-04T20:54:05;2.10;99.90
18868;DHT22;9563;49.240;9.088;2023-12-04T20:56:32;2.20;99.90
18868;DHT22;9563;49.240;9.088;2023-12-04T20:58:59;2.20;99.90
18868;DHT22;9563;49.240;9.088;2023-12-04T21:01:26;2.10;99.90
18868;DHT22;9563;49.240;9.088;2023-12-04T21:03:54;2.10;99.90